Time;durP1;ratioP1;P1;durP2;ratioP2;P2;SDS_P1;SDS_P2;PMS_P1;PMS_P2;Temp;Humidity;BMP_temperature;BMP_pressure;BME280_temperature;BME280_humidity;BME280_pressure;Samples;Min_cycle;Max_cycle;Signal;HPM_P1;HPM_P2
2022/10/31 00:00:58;;;;;;;0.00;0.00;;;14.30;99.90;;;;;;5072631;28;20021;-84
2022/10/31 00:03:27;;;;;;;0.00;0.00;;;15.70;99.90;;;;;;5091247;28;20067;-81
2022/10/31 00:05:54;;;;;;;0.00;0.00;;;;;;;;;;5088487;28;20052;-83
2022/10/31 00:08:21;;;;;;;0.00;0.00;;;14.30;99.90;;;;;;5089648;28;20045;-85
2022/10/31 00:10:48;;;;;;;0.00;0.00;;;;;;;;;;5092092;28;20068;-84
2022/10/31 00:13:15;;;;;;;0.00;0.00;;;14.40;99.90;;;;;;5075173;28;20073;-82
2022/10/31 00:15:42;;;;;;;0.00;0.00;;;;;;;;;;5073179;28;20052;-84
2022/10/31 00:18:10;;;;;;;0.00;0.00;;;;;;;;;;5095078;28;20036;-83
2022/10/31 00:20:38;;;;;;;0.00;0.00;;;14.40;99.90;;;;;;5089575;28;20056;-82
2022/10/31 00:23:06;;;;;;;0.00;0.00;;;;;;;;;;5096425;28;20068;-84
2022/10/31 00:25:34;;;;;;;0.00;0.00;;;14.40;99.90;;;;;;5078517;28;20064;-83
2022/10/31 00:28:01;;;;;;;0.00;0.00;;;;;;;;;;5058264;28;20045;-81
2022/10/31 00:30:29;;;;;;;0.00;0.00;;;14.30;99.90;;;;;;5075663;28;20067;-82
2022/10/31 00:32:56;;;;;;;0.00;0.00;;;14.30;99.90;;;;;;5077763;28;20056;-82
2022/10/31 00:35:23;;;;;;;0.00;0.00;;;15.50;99.90;;;;;;5088620;28;20025;-83
2022/10/31 00:37:52;;;;;;;0.10;0.10;;;14.30;99.90;;;;;;5073144;28;20060;-82
2022/10/31 00:40:19;;;;;;;0.00;0.00;;;14.50;99.90;;;;;;5077172;28;20515;-83
2022/10/31 00:42:46;;;;;;;0.05;0.05;;;14.20;99.90;;;;;;5070342;28;20033;-81
2022/10/31 00:45:13;;;;;;;0.00;0.00;;;14.50;99.90;;;;;;5069682;28;20049;-80
2022/10/31 00:47:39;;;;;;;0.10;0.10;;;14.20;99.90;;;;;;5080027;28;20044;-81
2022/10/31 00:50:07;;;;;;;0.00;0.00;;;14.20;99.90;;;;;;5075280;28;20028;-80
2022/10/31 00:52:35;;;;;;;0.00;0.00;;;14.10;99.90;;;;;;5095719;28;20067;-82
2022/10/31 00:55:03;;;;;;;0.00;0.00;;;15.40;99.90;;;;;;5089204;28;20049;-80
2022/10/31 00:57:31;;;;;;;0.00;0.00;;;;;;;;;;5076998;28;20040;-82
2022/10/31 00:59:58;;;;;;;0.00;0.00;;;;;;;;;;5091258;28;20255;-81
2022/10/31 01:02:25;;;;;;;0.00;0.00;;;;;;;;;;5078818;28;20055;-82
2022/10/31 01:04:52;;;;;;;0.10;0.10;;;14.10;99.90;;;;;;5091072;28;20047;-81
2022/10/31 01:07:19;;;;;;;0.00;0.00;;;;;;;;;;5076541;28;20035;-81
2022/10/31 01:09:46;;;;;;;0.00;0.00;;;;;;;;;;5080983;28;20075;-84
2022/10/31 01:12:15;;;;;;;0.00;0.00;;;14.10;99.90;;;;;;5093190;28;20146;-80
2022/10/31 01:14:43;;;;;;;0.00;0.00;;;14.00;99.90;;;;;;5087066;28;20064;-82
2022/10/31 01:17:10;;;;;;;0.00;0.00;;;14.60;99.90;;;;;;5077339;28;20055;-81
2022/10/31 01:19:37;;;;;;;0.00;0.00;;;;;;;;;;5075683;28;20068;-80
2022/10/31 01:22:04;;;;;;;0.00;0.00;;;14.00;99.90;;;;;;5095931;28;20052;-83
2022/10/31 01:24:31;;;;;;;0.00;0.00;;;15.20;99.90;;;;;;5069719;28;20501;-81
2022/10/31 01:26:58;;;;;;;0.00;0.00;;;;;;;;;;5075883;28;20504;-81
2022/10/31 01:29:26;;;;;;;0.00;0.00;;;13.90;99.90;;;;;;5077168;28;20291;-82
2022/10/31 01:31:54;;;;;;;0.00;0.00;;;;;;;;;;5094762;28;20055;-81
2022/10/31 01:34:21;;;;;;;0.00;0.00;;;;;;;;;;5076488;28;20029;-83
2022/10/31 01:36:50;;;;;;;0.00;0.00;;;;;;;;;;5095927;28;20056;-81
2022/10/31 01:39:19;;;;;;;0.00;0.00;;;;;;;;;;5075040;28;20269;-81
2022/10/31 01:41:47;;;;;;;0.00;0.00;;;13.80;99.90;;;;;;5075908;28;20045;-82
2022/10/31 01:44:48;;;;;;;0.00;0.00;;;13.80;99.90;;;;;;5076653;28;20037;-80
2022/10/31 01:47:19;;;;;;;0.00;0.00;;;13.80;99.90;;;;;;5092817;28;20059;-81
2022/10/31 01:49:48;;;;;;;0.00;0.00;;;13.70;99.90;;;;;;5088731;28;20052;-83
2022/10/31 01:52:21;;;;;;;0.00;0.00;;;13.70;99.90;;;;;;5073061;28;20103;-82
2022/10/31 01:54:51;;;;;;;0.00;0.00;;;14.60;99.90;;;;;;5073228;28;20067;-82
2022/10/31 01:57:19;;;;;;;0.00;0.00;;;;;;;;;;5073279;28;20045;-82
2022/10/31 01:59:50;;;;;;;0.00;0.00;;;13.60;99.90;;;;;;5077405;28;20055;-82
2022/10/31 02:02:18;;;;;;;0.00;0.00;;;13.60;99.90;;;;;;5073234;28;20032;-81
2022/10/31 02:04:47;;;;;;;0.00;0.00;;;13.50;99.90;;;;;;5068496;28;20037;-83
2022/10/31 02:07:17;;;;;;;0.00;0.00;;;13.50;99.90;;;;;;5093337;28;20052;-83
2022/10/31 02:09:47;;;;;;;0.00;0.00;;;13.40;99.90;;;;;;5069269;28;20037;-81
2022/10/31 02:12:14;;;;;;;;;;;13.40;99.90;;;;;;5078656;28;20072;-80
2022/10/31 02:14:42;;;;;;;0.10;0.10;;;13.40;99.90;;;;;;5093854;28;19955;-84
2022/10/31 02:17:10;;;;;;;0.00;0.00;;;13.70;99.90;;;;;;5074030;28;20044;-84
2022/10/31 02:19:45;;;;;;;0.00;0.00;;;13.30;99.90;;;;;;5078227;28;20037;-83
2022/10/31 02:22:18;;;;;;;0.00;0.00;;;13.30;99.90;;;;;;5097026;28;20055;-81
2022/10/31 02:24:53;;;;;;;0.00;0.00;;;13.20;99.90;;;;;;5076954;28;20075;-83
2022/10/31 02:27:48;;;;;;;0.00;0.00;;;13.20;99.90;;;;;;5077656;28;20063;-83
2022/10/31 02:30:18;;;;;;;0.00;0.00;;;13.10;99.90;;;;;;5070182;28;20055;-81
2022/10/31 02:33:00;;;;;;;0.00;0.00;;;13.10;99.90;;;;;;5076233;28;20036;-81
2022/10/31 02:35:39;;;;;;;0.00;0.00;;;13.10;99.90;;;;;;5086531;28;20041;-84
2022/10/31 02:38:18;;;;;;;0.00;0.00;;;13.40;99.90;;;;;;5089768;28;20071;-82
2022/10/31 02:40:51;;;;;;;0.00;0.00;;;13.00;99.90;;;;;;5087402;28;20039;-82
2022/10/31 02:43:25;;;;;;;0.00;0.00;;;13.60;99.90;;;;;;5088366;28;20068;-80
2022/10/31 02:46:01;;;;;;;0.00;0.00;;;12.90;99.90;;;;;;5074229;28;20064;-82
2022/10/31 02:48:34;;;;;;;0.10;0.10;;;12.90;99.90;;;;;;5091008;28;20083;-81
2022/10/31 02:51:04;;;;;;;0.00;0.00;;;12.90;99.90;;;;;;5069514;28;20024;-82
2022/10/31 02:53:33;;;;;;;0.00;0.00;;;12.90;99.90;;;;;;5071592;28;20037;-81
2022/10/31 02:56:04;;;;;;;0.10;0.10;;;12.90;99.90;;;;;;5088715;28;20301;-82
2022/10/31 02:58:35;;;;;;;0.00;0.00;;;12.90;99.90;;;;;;5064100;28;20025;-81
2022/10/31 03:01:25;;;;;;;0.00;0.00;;;12.90;99.90;;;;;;5074372;28;20032;-82
2022/10/31 03:04:28;;;;;;;0.00;0.00;;;12.90;99.90;;;;;;5063001;28;20084;-82
2022/10/31 03:07:03;;;;;;;0.00;0.00;;;12.90;99.90;;;;;;5054053;28;20072;-81
2022/10/31 03:09:39;;;;;;;0.00;0.00;;;12.90;99.90;;;;;;5086606;28;20025;-84
2022/10/31 03:12:10;;;;;;;0.00;0.00;;;12.80;99.90;;;;;;5074804;28;20068;-82
2022/10/31 03:14:41;;;;;;;0.00;0.00;;;12.70;99.90;;;;;;5089826;28;20048;-82
2022/10/31 03:17:15;;;;;;;0.00;0.00;;;12.70;99.90;;;;;;5071700;28;20060;-82
2022/10/31 03:19:47;;;;;;;0.00;0.00;;;12.70;99.90;;;;;;5087758;28;20032;-81
2022/10/31 03:22:17;;;;;;;0.00;0.00;;;14.70;99.90;;;;;;5074862;28;20024;-82
2022/10/31 03:24:46;;;;;;;0.00;0.00;;;12.60;99.90;;;;;;5092679;28;20043;-81
2022/10/31 03:27:17;;;;;;;0.00;0.00;;;12.60;99.90;;;;;;5091685;28;20043;-82
2022/10/31 03:29:45;;;;;;;0.00;0.00;;;12.70;99.90;;;;;;5075656;28;20052;-81
2022/10/31 03:32:16;;;;;;;0.00;0.00;;;12.70;99.90;;;;;;5074428;28;20017;-83
2022/10/31 03:34:45;;;;;;;0.00;0.00;;;12.70;99.90;;;;;;5089215;28;20016;-83
2022/10/31 03:37:30;;;;;;;0.00;0.00;;;12.70;99.90;;;;;;5092256;28;20032;-82
2022/10/31 03:40:07;;;;;;;0.00;0.00;;;12.70;99.90;;;;;;5088867;28;20017;-85
2022/10/31 03:42:54;;;;;;;0.00;0.00;;;12.70;99.90;;;;;;5076030;28;20331;-82
2022/10/31 03:45:40;;;;;;;;;;;14.60;99.90;;;;;;5073497;28;20128;-82
2022/10/31 03:48:19;;;;;;;0.00;0.00;;;12.70;99.90;;;;;;5069693;28;20151;-83
2022/10/31 03:50:58;;;;;;;0.00;0.00;;;12.70;99.90;;;;;;5072862;28;20133;-81
2022/10/31 03:53:32;;;;;;;0.00;0.00;;;12.70;99.90;;;;;;5089481;28;20048;-80
2022/10/31 03:56:02;;;;;;;0.00;0.00;;;14.00;99.90;;;;;;5073504;28;20124;-82
2022/10/31 03:58:37;;;;;;;0.00;0.00;;;12.70;99.90;;;;;;5090787;28;20055;-82
2022/10/31 04:01:08;;;;;;;0.00;0.00;;;12.70;99.90;;;;;;5068978;28;20057;-81
2022/10/31 04:03:38;;;;;;;0.10;0.10;;;12.70;99.90;;;;;;5082931;28;20036;-81
2022/10/31 04:06:22;;;;;;;0.00;0.00;;;12.70;99.90;;;;;;5076797;28;20064;-83
2022/10/31 04:08:53;;;;;;;0.00;0.00;;;12.70;99.90;;;;;;5091849;28;20044;-83
2022/10/31 04:11:26;;;;;;;0.00;0.00;;;13.30;99.90;;;;;;5073349;28;20066;-81
2022/10/31 04:13:55;;;;;;;0.00;0.00;;;12.70;99.90;;;;;;5086486;28;20052;-81
2022/10/31 04:16:23;;;;;;;0.00;0.00;;;12.70;99.90;;;;;;5082017;28;20035;-82
2022/10/31 04:18:56;;;;;;;0.00;0.00;;;;;;;;;;5090105;28;20041;-82
2022/10/31 04:21:29;;;;;;;0.00;0.00;;;12.70;99.90;;;;;;5091297;28;20043;-81
2022/10/31 04:24:02;;;;;;;0.00;0.00;;;;;;;;;;5088443;28;20048;-81
2022/10/31 04:26:29;;;;;;;0.00;0.00;;;;;;;;;;5073216;28;20055;-80
2022/10/31 04:28:56;;;;;;;0.00;0.00;;;12.60;99.90;;;;;;5092631;28;20048;-81
2022/10/31 04:31:23;;;;;;;0.00;0.00;;;12.60;99.90;;;;;;5072043;28;20080;-81
2022/10/31 04:33:50;;;;;;;0.00;0.00;;;;;;;;;;5077181;28;20068;-81
2022/10/31 04:36:18;;;;;;;0.00;0.00;;;;;;;;;;5066872;28;20035;-82
2022/10/31 04:38:46;;;;;;;0.08;0.08;;;12.60;99.90;;;;;;5069178;28;20462;-81
2022/10/31 04:41:13;;;;;;;0.00;0.00;;;;;;;;;;5071559;28;20076;-81
2022/10/31 04:43:40;;;;;;;0.00;0.00;;;12.50;99.90;;;;;;5091056;28;20039;-81
2022/10/31 04:46:07;;;;;;;0.00;0.00;;;12.50;99.90;;;;;;5071379;28;20440;-81
2022/10/31 04:48:34;;;;;;;0.00;0.00;;;;;;;;;;5082773;28;20460;-81
2022/10/31 04:51:02;;;;;;;0.00;0.00;;;12.50;99.90;;;;;;5071576;28;20044;-82
2022/10/31 04:53:29;;;;;;;0.00;0.00;;;12.40;99.90;;;;;;5076803;28;20033;-81
2022/10/31 04:56:00;;;;;;;0.00;0.00;;;12.40;99.90;;;;;;5069883;28;20053;-83
2022/10/31 04:58:27;;;;;;;0.00;0.00;;;13.50;99.90;;;;;;5075130;28;20036;-82
2022/10/31 05:00:56;;;;;;;0.10;0.10;;;12.30;99.90;;;;;;5084219;28;20025;-83
2022/10/31 05:03:27;;;;;;;0.00;0.00;;;;;;;;;;5081256;28;20021;-82
2022/10/31 05:05:54;;;;;;;0.00;0.00;;;;;;;;;;5073509;28;20040;-82
2022/10/31 05:08:22;;;;;;;0.00;0.00;;;;;;;;;;5088092;28;20063;-81
2022/10/31 05:10:55;;;;;;;0.10;0.10;;;12.20;99.90;;;;;;5093951;22;20135;-84
2022/10/31 05:13:29;;;;;;;0.10;0.10;;;12.20;99.90;;;;;;5067233;28;20040;-86
2022/10/31 05:15:56;;;;;;;0.00;0.00;;;12.20;99.90;;;;;;5069977;28;20048;-85
2022/10/31 05:18:23;;;;;;;0.00;0.00;;;12.20;99.90;;;;;;5053926;28;20079;-86
2022/10/31 05:20:50;;;;;;;0.00;0.00;;;12.20;99.90;;;;;;5068684;28;20072;-85
2022/10/31 05:23:17;;;;;;;0.00;0.00;;;;;;;;;;5045642;28;20507;-85
2022/10/31 05:25:44;;;;;;;0.00;0.00;;;;;;;;;;5053855;28;20049;-85
2022/10/31 05:28:11;;;;;;;0.00;0.00;;;;;;;;;;5051056;28;20041;-85
2022/10/31 05:30:39;;;;;;;0.00;0.00;;;12.10;99.90;;;;;;5065262;28;20044;-84
2022/10/31 05:33:06;;;;;;;0.00;0.00;;;12.10;99.90;;;;;;5070714;28;20048;-85
2022/10/31 05:35:33;;;;;;;0.00;0.00;;;;;;;;;;5052138;28;20127;-85
2022/10/31 05:38:01;;;;;;;0.00;0.00;;;;;;;;;;5069195;28;20412;-85
2022/10/31 05:40:28;;;;;;;0.00;0.00;;;;;;;;;;5054375;28;20050;-85
2022/10/31 05:42:56;;;;;;;0.10;0.10;;;12.00;99.90;;;;;;5069809;28;20040;-84
2022/10/31 05:45:24;;;;;;;0.00;0.00;;;12.00;99.90;;;;;;5065434;28;20053;-85
2022/10/31 05:47:53;;;;;;;0.00;0.00;;;12.00;99.90;;;;;;5050029;28;20047;-86
2022/10/31 05:50:21;;;;;;;0.00;0.00;;;12.00;99.90;;;;;;5053456;28;20052;-85
2022/10/31 05:52:54;;;;;;;0.00;0.00;;;11.90;99.90;;;;;;5050432;28;20048;-86
2022/10/31 05:55:21;;;;;;;0.00;0.00;;;;;;;;;;5052200;28;20067;-84
2022/10/31 05:57:48;;;;;;;0.00;0.00;;;11.90;99.90;;;;;;5071396;28;20043;-87
2022/10/31 06:00:15;;;;;;;0.00;0.00;;;11.00;99.90;;;;;;5063394;28;20075;-85
2022/10/31 06:02:42;;;;;;;0.00;0.00;;;11.80;99.90;;;;;;5070203;28;20081;-85
2022/10/31 06:05:10;;;;;;;0.00;0.00;;;11.70;99.90;;;;;;5051133;28;20041;-84
2022/10/31 06:07:37;;;;;;;0.00;0.00;;;11.70;99.90;;;;;;5069564;28;20037;-85
2022/10/31 06:10:06;;;;;;;0.00;0.00;;;11.60;99.90;;;;;;5051360;28;20044;-85
2022/10/31 06:12:37;;;;;;;0.10;0.10;;;11.60;99.90;;;;;;5067771;28;20424;-83
2022/10/31 06:15:05;;;;;;;0.00;0.00;;;11.60;99.90;;;;;;5066803;28;20090;-85
2022/10/31 06:17:33;;;;;;;0.00;0.00;;;11.60;99.90;;;;;;5068708;28;20049;-85
2022/10/31 06:20:00;;;;;;;0.00;0.00;;;11.50;99.90;;;;;;5071699;28;20122;-85
2022/10/31 06:22:28;;;;;;;0.00;0.00;;;11.50;99.90;;;;;;5062764;28;20036;-85
2022/10/31 06:24:55;;;;;;;0.00;0.00;;;;;;;;;;5049367;28;20188;-85
2022/10/31 06:27:23;;;;;;;0.00;0.00;;;11.50;99.90;;;;;;5065023;28;20035;-85
2022/10/31 06:29:50;;;;;;;0.00;0.00;;;11.50;99.90;;;;;;5051333;28;20083;-85
2022/10/31 06:32:17;;;;;;;0.00;0.00;;;;;;;;;;5049705;28;20044;-85
2022/10/31 06:34:44;;;;;;;0.00;0.00;;;11.40;99.90;;;;;;5052845;28;20607;-85
2022/10/31 06:37:12;;;;;;;0.00;0.00;;;11.50;99.90;;;;;;5053552;28;20400;-84
2022/10/31 06:39:40;;;;;;;0.00;0.00;;;11.50;99.90;;;;;;5051506;28;20055;-87
2022/10/31 06:42:07;;;;;;;0.10;0.10;;;11.50;99.90;;;;;;5057736;28;22159;-83
2022/10/31 06:44:33;;;;;;;0.03;0.03;;;11.50;99.90;;;;;;5067519;28;20043;-83
2022/10/31 06:47:00;;;;;;;0.10;0.10;;;11.50;99.90;;;;;;5057744;28;20365;-85
2022/10/31 06:49:27;;;;;;;0.00;0.00;;;11.50;99.90;;;;;;5052436;28;20041;-86
2022/10/31 06:51:54;;;;;;;0.00;0.00;;;;;;;;;;5047591;28;20045;-83
2022/10/31 06:54:21;;;;;;;0.00;0.00;;;11.60;99.90;;;;;;5052789;28;20072;-85
2022/10/31 06:56:50;;;;;;;0.10;0.10;;;11.60;99.90;;;;;;5047378;28;20142;-84
2022/10/31 06:59:17;;;;;;;0.00;0.00;;;;;;;;;;5066713;28;20459;-85
2022/10/31 07:01:44;;;;;;;0.00;0.00;;;;;;;;;;5052955;28;20052;-86
2022/10/31 07:04:12;;;;;;;0.00;0.00;;;;;;;;;;5045209;28;20044;-84
2022/10/31 07:06:39;;;;;;;0.00;0.00;;;;;;;;;;5067862;28;20045;-85
2022/10/31 07:09:06;;;;;;;0.00;0.00;;;;;;;;;;5045426;28;20044;-85
2022/10/31 07:11:33;;;;;;;0.00;0.00;;;11.70;99.90;;;;;;5065327;28;20052;-84
2022/10/31 07:14:01;;;;;;;0.00;0.00;;;11.70;99.90;;;;;;5048867;28;20088;-87
2022/10/31 07:16:28;;;;;;;0.00;0.00;;;;;;;;;;5049322;28;20078;-85
2022/10/31 07:18:56;;;;;;;0.10;0.10;;;;;;;;;;5068379;28;20119;-84
2022/10/31 07:21:23;;;;;;;0.10;0.10;;;;;;;;;;5051299;28;20055;-84
2022/10/31 07:23:50;;;;;;;0.00;0.00;;;;;;;;;;5044133;28;20045;-85
2022/10/31 07:26:17;;;;;;;0.00;0.00;;;;;;;;;;5064398;28;22023;-86
2022/10/31 07:28:45;;;;;;;0.00;0.00;;;12.00;99.90;;;;;;5052252;28;20048;-85
2022/10/31 07:31:14;;;;;;;0.00;0.00;;;12.00;99.90;;;;;;5068281;28;20066;-84
2022/10/31 07:33:41;;;;;;;0.00;0.00;;;;;;;;;;5066527;28;20040;-83
2022/10/31 07:36:08;;;;;;;0.00;0.00;;;;;;;;;;5052386;28;20036;-85
2022/10/31 07:38:35;;;;;;;0.00;0.00;;;12.10;99.90;;;;;;5069070;28;20037;-85
2022/10/31 07:41:02;;;;;;;0.00;0.00;;;;;;;;;;5062431;28;20500;-85
2022/10/31 07:43:29;;;;;;;0.00;0.00;;;12.00;99.90;;;;;;5065074;28;20044;-85
2022/10/31 07:45:56;;;;;;;0.00;0.00;;;12.00;99.90;;;;;;5048965;28;20056;-86
2022/10/31 07:48:24;;;;;;;0.00;0.00;;;14.50;99.90;;;;;;5053782;28;20060;-85
2022/10/31 07:50:51;;;;;;;0.00;0.00;;;;;;;;;;5051981;28;20048;-84
2022/10/31 07:53:18;;;;;;;0.00;0.00;;;;;;;;;;5051806;28;20044;-85
2022/10/31 07:55:45;;;;;;;0.00;0.00;;;12.20;99.90;;;;;;5062228;28;20060;-84
2022/10/31 07:58:14;;;;;;;0.00;0.00;;;12.20;99.90;;;;;;5053750;28;20071;-85
2022/10/31 08:00:42;;;;;;;0.00;0.00;;;12.30;99.90;;;;;;5068384;28;20761;-85
2022/10/31 08:03:11;;;;;;;0.00;0.00;;;12.40;99.90;;;;;;5049900;28;20360;-85
2022/10/31 08:05:40;;;;;;;0.00;0.00;;;12.60;99.90;;;;;;5069016;28;20483;-85
2022/10/31 08:08:08;;;;;;;0.00;0.00;;;;;;;;;;5051422;28;20044;-85
2022/10/31 08:10:36;;;;;;;0.00;0.00;;;12.60;99.90;;;;;;5048622;28;20075;-85
2022/10/31 08:13:05;;;;;;;0.00;0.00;;;12.70;99.90;;;;;;5066895;28;20061;-85
2022/10/31 08:15:33;;;;;;;0.00;0.00;;;12.80;99.90;;;;;;5066104;28;20123;-85
2022/10/31 08:18:01;;;;;;;0.10;0.10;;;;;;;;;;5068581;28;20094;-85
2022/10/31 08:20:29;;;;;;;0.00;0.00;;;;;;;;;;5048540;28;20040;-85
2022/10/31 08:22:59;;;;;;;0.00;0.00;;;13.20;99.90;;;;;;5055891;28;20051;-86
2022/10/31 08:25:27;;;;;;;;;;;13.20;99.90;;;;;;5071350;28;20123;-86
2022/10/31 08:27:59;;;;;;;0.00;0.00;;;13.50;99.90;;;;;;5051797;28;19924;-85
2022/10/31 08:30:29;;;;;;;0.00;0.00;;;13.40;99.90;;;;;;5048425;28;20389;-86
2022/10/31 08:33:00;;;;;;;0.00;0.00;;;16.60;99.90;;;;;;5052586;28;20052;-85
2022/10/31 08:35:27;;;;;;;0.00;0.00;;;13.60;99.90;;;;;;5050172;28;20051;-85
2022/10/31 08:37:55;;;;;;;0.00;0.00;;;13.60;99.90;;;;;;5049222;28;20043;-85
2022/10/31 08:40:24;;;;;;;0.00;0.00;;;13.70;99.90;;;;;;5066843;28;20107;-85
2022/10/31 08:42:58;;;;;;;0.00;0.00;;;13.70;99.90;;;;;;5055611;28;20075;-85
2022/10/31 08:45:25;;;;;;;0.00;0.00;;;13.80;99.90;;;;;;5045453;28;20895;-87
2022/10/31 08:47:56;;;;;;;0.00;0.00;;;14.00;99.90;;;;;;5069564;28;20057;-85
2022/10/31 08:50:23;;;;;;;0.00;0.00;;;14.30;99.90;;;;;;5049645;28;20072;-84
2022/10/31 08:52:50;;;;;;;0.00;0.00;;;;;;;;;;5056246;28;20131;-85
2022/10/31 08:55:34;;;;;;;0.00;0.00;;;14.10;99.90;;;;;;5054569;28;20060;-85
2022/10/31 08:58:01;;;;;;;0.10;0.10;;;14.10;99.90;;;;;;5053797;28;20047;-85
2022/10/31 09:00:29;;;;;;;0.00;0.00;;;14.10;99.90;;;;;;5050840;28;20045;-85
2022/10/31 09:02:56;;;;;;;0.10;0.10;;;14.20;99.90;;;;;;5069097;28;20052;-86
2022/10/31 09:05:24;;;;;;;0.10;0.10;;;;;;;;;;5058290;28;20084;-84
2022/10/31 09:07:54;;;;;;;0.00;0.00;;;14.30;99.90;;;;;;5066372;28;20199;-84
2022/10/31 09:10:21;;;;;;;0.00;0.00;;;14.40;99.90;;;;;;5069202;28;20064;-84
2022/10/31 09:12:54;;;;;;;0.00;0.00;;;14.40;99.90;;;;;;5046243;28;20420;-85
2022/10/31 09:15:21;;;;;;;0.10;0.10;;;;;;;;;;5052044;28;20059;-85
2022/10/31 09:17:49;;;;;;;0.00;0.00;;;14.40;99.90;;;;;;5053502;28;20052;-84
2022/10/31 09:20:16;;;;;;;0.03;0.03;;;;;;;;;;5073391;28;20127;-85
2022/10/31 09:22:43;;;;;;;0.00;0.00;;;14.50;99.90;;;;;;5051972;28;20127;-84
2022/10/31 09:25:10;;;;;;;0.00;0.00;;;;;;;;;;5046759;28;20090;-84
2022/10/31 09:27:37;;;;;;;0.00;0.00;;;14.60;99.90;;;;;;5070454;28;20432;-83
2022/10/31 09:30:07;;;;;;;0.00;0.00;;;14.60;99.90;;;;;;5050367;28;20435;-84
2022/10/31 09:32:34;;;;;;;0.00;0.00;;;;;;;;;;5066387;28;20119;-83
2022/10/31 09:35:01;;;;;;;0.00;0.00;;;;;;;;;;5042013;28;20032;-84
2022/10/31 09:37:28;;;;;;;0.00;0.00;;;;;;;;;;5070603;28;20040;-84
2022/10/31 09:39:55;;;;;;;0.00;0.00;;;;;;;;;;5042183;28;20076;-84
2022/10/31 09:42:54;;;;;;;0.00;0.00;;;14.60;99.90;;;;;;5071933;28;20569;-85
2022/10/31 09:45:27;;;;;;;0.00;0.00;;;14.70;99.90;;;;;;5030816;28;20064;-84
2022/10/31 09:48:14;;;;;;;0.00;0.00;;;14.70;99.90;;;;;;5051423;28;20760;-84
2022/10/31 09:50:47;;;;;;;0.00;0.00;;;14.70;99.90;;;;;;5068480;28;21442;-84
2022/10/31 09:53:23;;;;;;;0.10;0.10;;;16.20;99.90;;;;;;5067473;28;20493;-84
2022/10/31 09:55:52;;;;;;;0.00;0.00;;;14.70;99.90;;;;;;5070785;28;20094;-84
2022/10/31 09:58:30;;;;;;;0.00;0.00;;;14.70;99.90;;;;;;5047408;28;20032;-85
2022/10/31 10:01:04;;;;;;;0.00;0.00;;;16.20;99.90;;;;;;5047358;28;20052;-84
2022/10/31 10:03:37;;;;;;;0.00;0.00;;;14.80;99.90;;;;;;5052600;28;20103;-85
2022/10/31 10:06:12;;;;;;;0.00;0.00;;;14.80;99.90;;;;;;5066057;28;20135;-85
2022/10/31 10:08:40;;;;;;;0.00;0.00;;;;;;;;;;5048020;28;20123;-85
2022/10/31 10:11:20;;;;;;;0.00;0.00;;;14.90;99.90;;;;;;5058973;28;20415;-83
2022/10/31 10:14:02;;;;;;;0.00;0.00;;;15.00;99.90;;;;;;5049266;28;20079;-84
2022/10/31 10:16:42;;;;;;;0.00;0.00;;;15.00;99.90;;;;;;5043295;28;20068;-84
2022/10/31 10:19:26;;;;;;;0.00;0.00;;;15.10;99.90;;;;;;5066471;28;20043;-85
2022/10/31 10:22:01;;;;;;;0.10;0.10;;;15.20;99.90;;;;;;5069161;28;20048;-84
2022/10/31 10:24:41;;;;;;;0.05;0.05;;;15.20;99.90;;;;;;5067822;28;20042;-83
2022/10/31 10:27:15;;;;;;;0.00;0.00;;;15.20;99.90;;;;;;5064379;28;20086;-85
2022/10/31 10:29:50;;;;;;;;;;;15.80;99.90;;;;;;5068324;28;20040;-85
2022/10/31 10:32:24;;;;;;;0.03;0.03;;;15.20;99.90;;;;;;5066223;28;20005;-85
2022/10/31 10:34:54;;;;;;;0.10;0.10;;;15.30;99.90;;;;;;5061118;28;20079;-84
2022/10/31 10:37:28;;;;;;;0.00;0.00;;;15.50;99.90;;;;;;5045088;28;20120;-83
2022/10/31 10:40:00;;;;;;;0.00;0.00;;;15.50;99.90;;;;;;5061050;28;20079;-85
2022/10/31 10:48:14;;;;;;;0.00;0.00;;;15.50;99.90;;;;;;5063938;28;20106;-87
2022/10/31 10:50:46;;;;;;;0.00;0.00;;;15.60;99.90;;;;;;5065330;28;20416;-82
2022/10/31 10:53:32;;;;;;;0.00;0.00;;;15.60;99.90;;;;;;5047862;28;20134;-83
2022/10/31 10:56:10;;;;;;;0.00;0.00;;;15.80;99.90;;;;;;5044388;28;20079;-83
2022/10/31 10:58:39;;;;;;;0.00;0.00;;;16.10;99.90;;;;;;5071429;28;20739;-83
2022/10/31 11:01:11;;;;;;;0.00;0.00;;;15.90;99.90;;;;;;5048996;28;20078;-85
2022/10/31 11:03:40;;;;;;;0.00;0.00;;;15.90;99.90;;;;;;5069797;28;20049;-84
2022/10/31 11:06:17;;;;;;;0.00;0.00;;;15.80;99.90;;;;;;5065885;28;20055;-85
2022/10/31 11:08:44;;;;;;;0.00;0.00;;;15.80;99.90;;;;;;5046268;28;20052;-84
2022/10/31 11:11:25;;;;;;;0.00;0.00;;;16.00;99.90;;;;;;5078643;22;20108;-81
2022/10/31 11:14:06;;;;;;;0.00;0.00;;;16.10;99.90;;;;;;5069248;28;20168;-80
2022/10/31 11:16:52;;;;;;;0.00;0.00;;;16.10;99.90;;;;;;5068282;28;20041;-81
2022/10/31 11:19:28;;;;;;;0.00;0.00;;;16.10;99.90;;;;;;5065435;28;20513;-86
2022/10/31 11:25:30;;;;;;;0.00;0.00;;;16.30;99.90;;;;;;5061938;28;20057;-86
2022/10/31 11:28:26;;;;;;;0.00;0.00;;;16.30;99.90;;;;;;5075108;28;20037;-87
2022/10/31 11:31:11;;;;;;;0.00;0.00;;;16.30;99.90;;;;;;5051683;28;20049;-86
2022/10/31 11:34:14;;;;;;;0.03;0.03;;;16.30;99.90;;;;;;5056793;28;20500;-86
2022/10/31 11:36:49;;;;;;;0.00;0.00;;;16.40;99.90;;;;;;5058710;28;20052;-86
2022/10/31 11:39:22;;;;;;;0.00;0.00;;;16.50;99.90;;;;;;5055071;28;20041;-84
2022/10/31 11:42:03;;;;;;;0.00;0.00;;;16.60;99.90;;;;;;5077921;28;20045;-85
2022/10/31 11:44:45;;;;;;;0.00;0.00;;;;;;;;;;5054923;28;20049;-87
2022/10/31 11:47:20;;;;;;;0.00;0.00;;;16.70;99.90;;;;;;5059663;28;20079;-86
2022/10/31 11:49:51;;;;;;;0.00;0.00;;;;;;;;;;5056939;28;20040;-86
2022/10/31 11:52:26;;;;;;;0.00;0.00;;;16.90;99.90;;;;;;5061157;28;20044;-86
2022/10/31 11:55:15;;;;;;;0.00;0.00;;;17.00;99.90;;;;;;5061324;28;20049;-86
2022/10/31 11:57:49;;;;;;;0.00;0.00;;;17.10;99.90;;;;;;5068180;28;20103;-86
2022/10/31 12:00:28;;;;;;;0.00;0.00;;;17.10;99.90;;;;;;5056954;28;20033;-87
2022/10/31 12:03:26;;;;;;;0.00;0.00;;;17.10;99.90;;;;;;5057183;28;20063;-86
2022/10/31 12:06:05;;;;;;;0.00;0.00;;;17.10;99.90;;;;;;5067200;28;20163;-86
2022/10/31 12:08:45;;;;;;;0.00;0.00;;;17.00;99.90;;;;;;5055805;28;20045;-87
2022/10/31 12:11:33;;;;;;;0.00;0.00;;;17.00;99.90;;;;;;5046206;28;20056;-86
2022/10/31 12:14:10;;;;;;;0.00;0.00;;;17.00;99.90;;;;;;5055860;28;20067;-84
2022/10/31 12:16:51;;;;;;;0.00;0.00;;;16.90;99.90;;;;;;5067410;28;20044;-86
2022/10/31 12:19:32;;;;;;;0.00;0.00;;;17.00;99.90;;;;;;5059177;28;20067;-84
2022/10/31 12:22:18;;;;;;;0.00;0.00;;;17.00;99.90;;;;;;5065280;28;20045;-87
2022/10/31 12:25:02;;;;;;;0.00;0.00;;;17.10;99.90;;;;;;5065066;28;20044;-85
2022/10/31 12:27:57;;;;;;;0.00;0.00;;;17.20;99.90;;;;;;5074317;28;20068;-85
2022/10/31 12:30:40;;;;;;;0.00;0.00;;;17.20;99.90;;;;;;5066004;28;20040;-85
2022/10/31 12:33:44;;;;;;;0.00;0.00;;;17.10;99.90;;;;;;5059649;28;20341;-85
2022/10/31 12:36:41;;;;;;;0.00;0.00;;;17.00;99.90;;;;;;5060663;28;20047;-83
2022/10/31 12:39:29;;;;;;;0.00;0.00;;;17.00;99.90;;;;;;5060783;28;21991;-86
2022/10/31 12:42:05;;;;;;;0.00;0.00;;;17.10;99.90;;;;;;5063802;28;20045;-83
2022/10/31 12:44:55;;;;;;;0.00;0.00;;;17.10;99.90;;;;;;5081401;28;20075;-85
2022/10/31 12:47:46;;;;;;;0.00;0.00;;;17.20;99.90;;;;;;5069697;28;20048;-86
2022/10/31 12:50:56;;;;;;;0.00;0.00;;;17.20;99.90;;;;;;5082793;28;20060;-85
2022/10/31 12:54:02;;;;;;;0.00;0.00;;;17.30;99.90;;;;;;5066129;28;20051;-86
2022/10/31 12:56:42;;;;;;;0.00;0.00;;;17.40;99.90;;;;;;5068024;28;20033;-84
2022/10/31 12:59:21;;;;;;;0.00;0.00;;;17.50;99.90;;;;;;5068851;28;20097;-83
2022/10/31 13:02:06;;;;;;;0.00;0.00;;;17.50;99.90;;;;;;5067300;28;20055;-83
2022/10/31 13:04:46;;;;;;;0.00;0.00;;;17.50;99.90;;;;;;5065733;28;20033;-85
2022/10/31 13:07:19;;;;;;;0.00;0.00;;;17.50;99.90;;;;;;5075070;28;20048;-86
2022/10/31 13:09:53;;;;;;;0.00;0.00;;;17.50;99.90;;;;;;5058019;28;20037;-82
2022/10/31 13:12:22;;;;;;;0.00;0.00;;;17.50;99.90;;;;;;5052250;28;20116;-86
2022/10/31 13:15:12;;;;;;;0.00;0.00;;;17.40;99.90;;;;;;5057642;28;20048;-86
2022/10/31 13:17:43;;;;;;;0.00;0.00;;;17.50;99.90;;;;;;5060754;28;20120;-86
2022/10/31 13:20:42;;;;;;;0.00;0.00;;;17.50;99.90;;;;;;5064609;28;20033;-85
2022/10/31 13:23:26;;;;;;;0.00;0.00;;;17.60;99.90;;;;;;5057891;28;20100;-83
2022/10/31 13:26:31;;;;;;;0.00;0.00;;;17.60;99.90;;;;;;5060060;28;20045;-86
2022/10/31 13:29:13;;;;;;;0.00;0.00;;;17.60;99.90;;;;;;5071048;28;20048;-83
2022/10/31 13:31:45;;;;;;;0.00;0.00;;;17.60;99.90;;;;;;5062564;28;20097;-85
2022/10/31 13:34:39;;;;;;;0.00;0.00;;;17.60;99.90;;;;;;5057917;28;20041;-85
2022/10/31 13:37:17;;;;;;;0.00;0.00;;;17.60;99.90;;;;;;5064322;28;20032;-82
2022/10/31 13:40:14;;;;;;;0.00;0.00;;;17.60;99.90;;;;;;5061450;28;20046;-84
2022/10/31 13:43:02;;;;;;;0.00;0.00;;;17.60;99.90;;;;;;5073271;28;20326;-83
2022/10/31 13:45:36;;;;;;;0.00;0.00;;;;;;;;;;5075669;28;20202;-83
2022/10/31 13:48:34;;;;;;;0.00;0.00;;;17.70;99.90;;;;;;5070509;28;20034;-82